Time;durP1;ratioP1;P1;durP2;ratioP2;P2;SDS_P1;SDS_P2;PMS_P1;PMS_P2;Temp;Humidity;BMP_temperature;BMP_pressure;BME280_temperature;BME280_humidity;BME280_pressure;Samples;Min_cycle;Max_cycle;Signal;HPM_P1;HPM_P2
2021/12/25 00:01:21;;;;;;;3.20;1.70;;;;;;;-1.92;73.15;98877.86;103366;1318;22765;-75
2021/12/25 00:03:51;;;;;;;3.10;1.50;;;;;;;-1.99;72.53;98881.54;103322;1319;22723;-75
2021/12/25 00:06:19;;;;;;;3.60;2.00;;;;;;;-2.04;72.41;98888.88;103172;1318;22755;-78
2021/12/25 00:08:46;;;;;;;2.90;1.60;;;;;;;-2.09;72.12;98895.67;103281;1318;25247;-78
2021/12/25 00:11:14;;;;;;;3.20;1.80;;;;;;;-2.17;71.88;98903.65;103395;1318;24824;-78
2021/12/25 00:13:42;;;;;;;2.60;1.50;;;;;;;-2.20;72.31;98906.19;103172;1323;22651;-75
2021/12/25 00:16:09;;;;;;;3.00;1.80;;;;;;;-2.20;71.98;98908.42;102741;1329;23105;-75
2021/12/25 00:18:38;;;;;;;3.50;1.60;;;;;;;-2.21;71.58;98912.54;102427;1329;24480;-76
2021/12/25 00:21:07;;;;;;;2.30;1.60;;;;;;;-2.29;71.31;98924.65;102298;1329;22606;-79
2021/12/25 00:23:37;;;;;;;1.60;1.30;;;;;;;-2.32;71.44;98934.77;102160;1329;22717;-77
2021/12/25 00:26:10;;;;;;;3.20;1.60;;;;;;;-2.37;71.30;98938.45;102716;1328;25261;-78
2021/12/25 00:34:50;;;;;;;5.60;2.00;;;;;;;-2.34;72.12;98967.33;102360;1329;22594;-75
2021/12/25 00:37:18;;;;;;;3.50;2.10;;;;;;;-2.34;71.95;98974.39;102101;1330;22567;-75
2021/12/25 00:39:45;;;;;;;2.60;1.90;;;;;;;-2.32;72.20;98983.73;102458;1330;22621;-75
2021/12/25 00:42:12;;;;;;;4.10;1.90;;;;;;;-2.33;72.03;98995.95;102401;1329;22577;-87
2021/12/25 00:44:41;;;;;;;3.10;1.80;;;;;;;-2.30;72.25;99000.86;101865;1333;25380;-75
2021/12/25 00:47:08;;;;;;;1.60;1.40;;;;;;;-2.29;71.71;99006.21;101988;1331;25261;-80
2021/12/25 00:49:35;;;;;;;2.50;2.10;;;;;;;-2.40;71.57;99010.83;102289;1330;23905;-78
2021/12/25 00:52:04;;;;;;;2.30;1.80;;;;;;;-2.43;71.95;99023.85;102241;1333;22630;-78
2021/12/25 00:54:32;;;;;;;3.50;2.00;;;;;;;-2.36;72.18;99032.45;102007;1331;25280;-77
2021/12/25 00:57:00;;;;;;;2.80;1.80;;;;;;;-2.37;72.07;99033.80;102098;1333;22671;-77
2021/12/25 00:59:27;;;;;;;5.00;2.00;;;;;;;-2.39;72.12;99032.21;102030;1333;22606;-78
2021/12/25 01:01:54;;;;;;;4.30;1.80;;;;;;;-2.36;72.22;99039.71;102199;1333;24581;-79
2021/12/25 01:04:21;;;;;;;4.20;2.00;;;;;;;-2.32;72.01;99045.66;102847;1328;22534;-78
2021/12/25 01:06:49;;;;;;;2.50;1.70;;;;;;;-2.32;71.86;99051.51;102691;1329;22587;-78
2021/12/25 01:09:17;;;;;;;3.40;1.80;;;;;;;-2.39;71.60;99057.22;102772;1329;27185;-78
2021/12/25 01:11:47;;;;;;;4.60;2.30;;;;;;;-2.51;71.73;99064.74;103337;1317;22809;-79
2021/12/25 01:17:32;;;;;;;5.50;2.20;;;;;;;-2.49;71.76;99083.57;103855;1317;25245;-77
2021/12/25 01:38:47;;;;;;;2.00;1.40;;;;;;;-2.88;70.42;99141.08;102919;1325;25541;-76
2021/12/25 01:48:01;;;;;;;2.50;1.50;;;;;;;-3.07;70.20;99166.61;102753;1328;22605;-74
2021/12/25 01:50:30;;;;;;;3.30;1.50;;;;;;;-3.12;69.94;99176.48;102539;1328;22614;-74
2021/12/25 01:52:57;;;;;;;1.90;1.40;;;;;;;-3.16;69.81;99179.98;102546;1328;24392;-76
2021/12/25 01:55:27;;;;;;;2.00;1.40;;;;;;;-3.20;69.75;99186.08;102567;1328;22654;-74
2021/12/25 01:57:58;;;;;;;3.30;1.50;;;;;;;-3.29;69.52;99187.89;102256;1328;24306;-74
2021/12/25 02:00:32;;;;;;;3.30;1.60;;;;;;;-3.39;69.26;99190.23;102342;1331;26708;-75
2021/12/25 02:03:00;;;;;;;5.70;1.40;;;;;;;-3.51;69.11;99198.52;102426;1329;22647;-75
2021/12/25 02:05:27;;;;;;;3.90;1.40;;;;;;;-3.60;68.90;99205.81;102016;1330;22578;-77
2021/12/25 02:08:15;;;;;;;1.90;1.10;;;;;;;-3.75;68.56;99209.51;102344;1329;22814;-77
2021/12/25 02:10:43;;;;;;;5.50;1.60;;;;;;;-3.89;68.78;99217.02;102055;1329;22809;-76
2021/12/25 02:13:12;;;;;;;1.50;1.30;;;;;;;-3.98;69.17;99217.44;102412;1330;22658;-74
2021/12/25 02:15:43;;;;;;;4.60;1.20;;;;;;;-4.04;69.30;99221.89;102231;1331;25681;-74
2021/12/25 02:21:17;;;;;;;6.20;1.60;;;;;;;-3.98;69.61;99233.25;102512;1329;22587;-75
2021/12/25 02:24:01;;;;;;;4.40;1.70;;;;;;;-3.98;69.55;99244.42;102576;1325;24477;-77
2021/12/25 02:26:27;;;;;;;3.90;1.30;;;;;;;-3.95;69.56;99253.46;103438;1318;22610;-74
2021/12/25 02:28:54;;;;;;;3.60;1.80;;;;;;;-3.93;69.69;99258.16;103097;1320;22605;-76
2021/12/25 02:31:23;;;;;;;2.40;1.50;;;;;;;-3.96;69.49;99263.21;103441;1317;22608;-76
2021/12/25 02:33:50;;;;;;;3.20;1.40;;;;;;;-4.00;69.30;99273.95;103480;1317;24825;-77
2021/12/25 02:36:18;;;;;;;15.90;1.50;;;;;;;-4.07;69.33;99269.79;103380;1318;25429;-76
2021/12/25 02:38:47;;;;;;;3.80;1.70;;;;;;;-4.11;69.47;99274.47;103518;1318;22658;-75
2021/12/25 02:41:15;;;;;;;5.60;1.40;;;;;;;-4.10;69.56;99281.89;103480;1317;22590;-77
2021/12/25 02:43:45;;;;;;;1.70;1.20;;;;;;;-4.14;69.21;99290.35;103479;1319;24265;-78
2021/12/25 02:46:15;;;;;;;3.30;1.70;;;;;;;-4.25;69.23;99297.08;103225;1319;22599;-76
2021/12/25 02:48:43;;;;;;;2.10;1.50;;;;;;;-4.32;69.29;99300.77;103302;1319;22574;-76
2021/12/25 02:51:11;;;;;;;2.00;1.30;;;;;;;-4.39;69.02;99301.59;103196;1318;22593;-75
2021/12/25 02:53:39;;;;;;;2.70;1.40;;;;;;;-4.45;69.17;99310.85;103434;1319;22651;-74
2021/12/25 02:56:07;;;;;;;5.60;1.90;;;;;;;-4.48;69.29;99307.82;103485;1319;22562;-73
2021/12/25 02:58:36;;;;;;;3.40;1.40;;;;;;;-4.48;68.97;99315.36;103288;1318;22568;-76
2021/12/25 03:01:10;;;;;;;4.10;1.50;;;;;;;-4.49;69.25;99313.96;103483;1319;25355;-75
2021/12/25 03:03:38;;;;;;;2.90;1.50;;;;;;;-4.48;69.16;99323.27;103388;1319;25256;-79
2021/12/25 03:06:07;;;;;;;1.70;1.10;;;;;;;-4.50;68.69;99330.60;103574;1319;22574;-79
2021/12/25 03:08:58;;;;;;;5.40;1.50;;;;;;;-4.55;68.55;99329.41;103435;1319;22785;-81
2021/12/25 03:11:26;;;;;;;5.30;1.60;;;;;;;-4.57;68.55;99330.02;103645;1318;24844;-79
2021/12/25 03:14:10;;;;;;;1.80;1.00;;;;;;;-4.64;68.65;99334.08;103431;1317;22746;-79
2021/12/25 03:25:19;;;;;;;3.20;1.30;;;;;;;-4.80;68.71;99351.73;103511;1310;23387;-80
2021/12/25 03:27:47;;;;;;;4.40;1.60;;;;;;;-4.85;68.78;99362.05;103425;1319;22842;-81
2021/12/25 03:30:16;;;;;;;5.20;1.90;;;;;;;-4.88;69.19;99370.34;103064;1325;22798;-81
2021/12/25 03:32:45;;;;;;;2.80;1.40;;;;;;;-4.88;69.18;99373.44;103026;1325;25435;-81
2021/12/25 03:35:13;;;;;;;4.10;1.70;;;;;;;-4.90;69.27;99378.14;103063;1325;25418;-80
2021/12/25 03:37:40;;;;;;;2.00;1.50;;;;;;;-4.89;69.62;99383.89;102854;1322;25416;-77
2021/12/25 03:40:08;;;;;;;3.70;1.50;;;;;;;-4.91;69.45;99385.02;102476;1325;22589;-77
2021/12/25 03:42:35;;;;;;;4.20;1.80;;;;;;;-4.96;69.47;99389.27;102966;1324;22590;-78
2021/12/25 03:45:03;;;;;;;4.70;1.50;;;;;;;-5.04;69.62;99391.91;102769;1325;24241;-79
2021/12/25 03:47:35;;;;;;;4.20;1.60;;;;;;;-5.06;69.60;99395.45;102788;1323;24268;-78
2021/12/25 03:58:19;;;;;;;4.30;1.50;;;;;;;-5.24;69.53;99406.80;103337;1319;22556;-77
2021/12/25 04:01:14;;;;;;;3.90;1.60;;;;;;;-5.34;69.40;99413.42;103188;1318;22677;-77
2021/12/25 04:07:17;;;;;;;2.50;1.50;;;;;;;-5.53;69.41;99424.85;103342;1318;25563;-77
2021/12/25 04:10:00;;;;;;;3.00;1.20;;;;;;;-5.60;69.35;99428.73;103394;1317;25434;-77
2021/12/25 04:12:28;;;;;;;3.70;1.60;;;;;;;-5.65;69.28;99436.08;103531;1319;24803;-78
2021/12/25 04:14:55;;;;;;;4.00;2.10;;;;;;;-5.72;69.24;99442.12;103484;1319;22664;-77
2021/12/25 04:17:22;;;;;;;3.60;2.10;;;;;;;-5.78;69.34;99449.77;103459;1319;25303;-77
2021/12/25 04:19:49;;;;;;;5.10;2.40;;;;;;;-5.78;69.63;99451.30;103747;1318;22599;-77
2021/12/25 04:22:26;;;;;;;4.40;1.90;;;;;;;-5.79;69.62;99454.71;103276;1319;25479;-79
2021/12/25 04:26:30;;;;;;;3.70;2.10;;;;;;;-5.84;69.55;99462.91;103472;1319;22715;-79
2021/12/25 04:31:48;;;;;;;2.40;1.90;;;;;;;-5.92;69.26;99469.61;103386;1318;22694;-76
2021/12/25 05:06:23;;;;;;;2.90;2.00;;;;;;;-6.27;68.84;99527.64;103212;1322;22570;-77
2021/12/25 05:08:51;;;;;;;2.80;1.30;;;;;;;-6.29;68.94;99532.14;102772;1327;25378;-78
2021/12/25 05:11:19;;;;;;;2.50;1.80;;;;;;;-6.28;69.17;99526.90;102858;1326;25295;-78
2021/12/25 05:13:50;;;;;;;5.40;1.90;;;;;;;-6.28;68.93;99533.76;102798;1322;22620;-77
2021/12/25 05:16:22;;;;;;;5.00;2.00;;;;;;;-6.27;68.97;99535.19;102843;1322;26540;-77
2021/12/25 05:18:51;;;;;;;2.10;1.40;;;;;;;-6.29;69.01;99537.66;103239;1321;22791;-77
2021/12/25 05:21:18;;;;;;;4.90;2.00;;;;;;;-6.32;68.72;99542.30;103042;1322;25633;-77
2021/12/25 05:23:47;;;;;;;5.10;2.60;;;;;;;-6.40;68.95;99546.77;102890;1322;25426;-76
2021/12/25 05:26:16;;;;;;;6.10;2.30;;;;;;;-6.46;68.68;99550.27;102929;1317;23429;-76
2021/12/25 05:28:46;;;;;;;5.40;2.40;;;;;;;-6.55;68.82;99547.29;103463;1317;24511;-77
2021/12/25 05:31:15;;;;;;;3.90;2.30;;;;;;;-6.56;69.01;99549.28;103449;1317;24236;-76
2021/12/25 05:33:59;;;;;;;4.90;2.60;;;;;;;-6.55;68.97;99553.44;103432;1317;22799;-76
2021/12/25 05:36:45;;;;;;;5.30;3.50;;;;;;;-6.61;69.26;99561.42;103626;1318;24215;-73
2021/12/25 05:39:30;;;;;;;4.90;2.70;;;;;;;-6.62;69.31;99561.49;103412;1318;22577;-74
2021/12/25 05:41:58;;;;;;;3.80;2.90;;;;;;;-6.67;69.18;99561.44;103125;1322;22593;-72
2021/12/25 05:44:27;;;;;;;6.50;3.40;;;;;;;-6.75;68.99;99562.84;103126;1322;22643;-76
2021/12/25 05:47:14;;;;;;;4.80;2.80;;;;;;;-6.79;69.50;99565.71;102966;1322;25233;-76
2021/12/25 05:49:45;;;;;;;4.00;2.70;;;;;;;-6.80;69.44;99568.05;103191;1322;22580;-77
2021/12/25 05:52:30;;;;;;;4.20;2.50;;;;;;;-6.89;69.59;99576.88;102856;1322;381464;-76
2021/12/25 05:55:16;;;;;;;3.40;2.20;;;;;;;-6.95;69.27;99582.25;102965;1322;24414;-76
2021/12/25 05:58:03;;;;;;;4.60;2.50;;;;;;;-7.00;69.68;99588.50;103196;1318;25219;-76
2021/12/25 06:00:36;;;;;;;7.00;2.90;;;;;;;-7.02;69.74;99592.52;102982;1319;22659;-77
2021/12/25 06:03:04;;;;;;;4.00;2.30;;;;;;;-7.02;70.03;99594.61;103397;1317;23049;-75
2021/12/25 06:05:37;;;;;;;6.50;2.70;;;;;;;-7.04;69.75;99600.15;103451;1317;23326;-73
2021/12/25 06:08:05;;;;;;;4.60;2.80;;;;;;;-7.07;69.91;99598.61;103467;1319;22705;-75
2021/12/25 06:10:32;;;;;;;4.80;2.70;;;;;;;-7.14;69.63;99599.80;103358;1319;22609;-76
2021/12/25 06:13:01;;;;;;;7.50;2.90;;;;;;;-7.24;69.93;99609.62;103304;1319;22586;-76
2021/12/25 06:15:32;;;;;;;5.00;3.10;;;;;;;-7.24;69.72;99614.38;102655;1322;22740;-76
2021/12/25 06:18:23;;;;;;;5.40;3.10;;;;;;;-7.35;69.76;99619.84;102485;1330;24543;-75
2021/12/25 06:21:11;;;;;;;6.30;2.40;;;;;;;-7.37;70.07;99621.98;102351;1330;25389;-75
2021/12/25 06:23:56;;;;;;;4.20;2.90;;;;;;;-7.37;70.05;99625.89;102511;1331;24238;-75
2021/12/25 06:27:08;;;;;;;5.30;3.00;;;;;;;-7.41;69.93;99627.05;102548;1329;24229;-77
2021/12/25 06:29:54;;;;;;;4.10;2.50;;;;;;;-7.46;69.82;99632.27;102549;1330;22597;-76
2021/12/25 06:32:39;;;;;;;3.10;2.10;;;;;;;-7.54;69.97;99636.48;102550;1321;24727;-79
2021/12/25 06:35:31;;;;;;;5.60;2.80;;;;;;;-7.58;70.05;99643.15;103217;1325;25362;-79
2021/12/25 06:38:18;;;;;;;5.70;2.50;;;;;;;-7.58;70.24;99643.46;102922;1317;23371;-77
2021/12/25 06:41:05;;;;;;;5.10;3.00;;;;;;;-7.57;70.22;99646.44;102593;1322;22655;-79
2021/12/25 06:43:32;;;;;;;4.80;3.00;;;;;;;-7.58;70.08;99657.15;103009;1325;25544;-78
2021/12/25 06:46:00;;;;;;;6.30;3.00;;;;;;;-7.57;70.53;99658.08;102691;1325;22562;-80
2021/12/25 06:48:28;;;;;;;5.60;2.90;;;;;;;-7.49;70.56;99658.67;102914;1318;22720;-80
2021/12/25 06:51:21;;;;;;;5.60;3.10;;;;;;;-7.43;70.04;99660.48;102789;1325;23942;-79
2021/12/25 06:54:10;;;;;;;7.00;3.30;;;;;;;-7.49;69.72;99660.69;102680;1324;22667;-79
2021/12/25 06:56:53;;;;;;;7.00;3.70;;;;;;;-7.50;69.99;99664.77;102774;1322;22579;-79
2021/12/25 06:59:25;;;;;;;5.80;3.00;;;;;;;-7.37;70.15;99666.63;102951;1323;22580;-79
2021/12/25 07:01:52;;;;;;;9.30;3.40;;;;;;;-7.31;70.01;99669.44;102148;1331;25461;-78
2021/12/25 07:04:38;;;;;;;6.10;3.00;;;;;;;-7.27;69.60;99666.94;102503;1320;22874;-78
2021/12/25 07:07:24;;;;;;;9.20;3.50;;;;;;;-7.20;69.64;99673.98;102367;1324;22622;-77
2021/12/25 07:10:16;;;;;;;8.10;3.40;;;;;;;-7.14;69.87;99678.17;102575;1321;22832;-78
2021/12/25 07:13:07;;;;;;;8.00;3.20;;;;;;;-7.10;69.41;99684.39;101789;1329;22658;-82
2021/12/25 07:15:55;;;;;;;9.10;3.70;;;;;;;-7.11;69.07;99682.27;102641;1325;22792;-77
2021/12/25 07:18:35;;;;;;;5.20;2.90;;;;;;;-7.23;68.79;99684.05;103192;1316;22554;-77
2021/12/25 07:21:33;;;;;;;6.00;3.50;;;;;;;-7.30;69.19;99687.30;104088;1319;22611;-77
2021/12/25 07:24:23;;;;;;;8.30;4.20;;;;;;;-7.34;69.12;99694.16;103665;1318;23994;-77
2021/12/25 07:26:58;;;;;;;6.20;3.60;;;;;;;-7.35;69.19;99693.08;103540;1318;22587;-78
2021/12/25 07:29:40;;;;;;;6.40;3.90;;;;;;;-7.27;69.23;99693.11;103558;1317;22599;-77
2021/12/25 07:32:07;;;;;;;5.50;3.50;;;;;;;-7.38;68.70;99692.56;103490;1318;25515;-77
2021/12/25 07:34:34;;;;;;;6.60;4.30;;;;;;;-7.54;68.64;99697.91;103121;1319;25262;-77
2021/12/25 07:37:01;;;;;;;7.40;4.60;;;;;;;-7.61;69.12;99698.41;103582;1318;22695;-76
2021/12/25 07:39:28;;;;;;;6.40;4.10;;;;;;;-7.61;69.55;99700.61;103353;1318;22966;-76
2021/12/25 07:41:55;;;;;;;6.90;3.50;;;;;;;-7.52;69.60;99703.29;103216;1319;24311;-76
2021/12/25 07:44:52;;;;;;;9.10;4.70;;;;;;;-7.53;69.10;99710.09;103260;1319;22804;-80
2021/12/25 07:47:21;;;;;;;7.40;3.70;;;;;;;-7.44;69.45;99712.80;103294;1319;22799;-80
2021/12/25 07:49:50;;;;;;;7.80;4.60;;;;;;;-7.35;69.45;99715.31;103236;1318;22590;-77
2021/12/25 07:52:16;;;;;;;8.70;4.40;;;;;;;-7.21;69.53;99717.56;103463;1317;25416;-76
2021/12/25 07:54:43;;;;;;;6.80;4.00;;;;;;;-7.09;69.49;99716.10;103574;1319;24283;-77
2021/12/25 07:57:10;;;;;;;8.20;4.10;;;;;;;-6.88;69.82;99719.73;103470;1316;22590;-79
2021/12/25 07:59:37;;;;;;;7.30;4.10;;;;;;;-6.69;69.34;99722.70;103384;1319;22585;-79
2021/12/25 08:02:04;;;;;;;8.40;4.00;;;;;;;-6.67;68.66;99726.38;103569;1319;22606;-78
2021/12/25 08:04:31;;;;;;;8.40;4.70;;;;;;;-6.72;68.25;99727.52;103393;1319;22608;-80
2021/12/25 08:06:58;;;;;;;6.70;4.20;;;;;;;-6.76;68.51;99727.53;103416;1313;25024;-79
2021/12/25 08:09:29;;;;;;;11.40;4.40;;;;;;;-6.76;68.04;99732.98;103348;1319;22610;-76
2021/12/25 08:11:58;;;;;;;10.40;4.70;;;;;;;-6.85;67.86;99739.20;103561;1314;22558;-80
2021/12/25 08:14:25;;;;;;;9.40;5.40;;;;;;;-7.01;67.98;99736.36;103479;1319;24218;-77
2021/12/25 08:16:58;;;;;;;9.00;5.50;;;;;;;-7.07;68.13;99742.90;103648;1318;25310;-78
2021/12/25 08:19:28;;;;;;;6.10;4.60;;;;;;;-7.07;68.41;99743.58;103463;1317;22583;-79
2021/12/25 08:22:14;;;;;;;11.10;4.90;;;;;;;-6.99;68.80;99739.39;103537;1318;25219;-80
2021/12/25 08:25:00;;;;;;;6.70;3.90;;;;;;;-6.90;68.72;99742.54;103665;1319;22962;-78
2021/12/25 08:27:47;;;;;;;6.50;4.30;;;;;;;-6.87;68.26;99749.20;103262;1314;24131;-78
2021/12/25 08:30:47;;;;;;;12.90;5.50;;;;;;;-6.82;68.42;99758.20;103017;1317;22665;-78
2021/12/25 08:33:20;;;;;;;9.10;4.10;;;;;;;-6.78;68.13;99758.88;103499;1317;24433;-78
2021/12/25 08:36:05;;;;;;;7.90;4.00;;;;;;;-6.76;68.59;99757.11;103699;1310;25484;-77
2021/12/25 08:38:32;;;;;;;7.30;4.10;;;;;;;-6.66;68.40;99763.30;103488;1317;22603;-78
2021/12/25 08:40:59;;;;;;;10.60;5.40;;;;;;;-6.62;67.97;99768.80;103690;1318;22706;-77
2021/12/25 08:43:33;;;;;;;9.50;5.30;;;;;;;-6.51;68.38;99773.08;103720;1313;22704;-81
2021/12/25 08:46:03;;;;;;;6.50;3.50;;;;;;;-6.41;68.06;99777.33;103457;1314;22530;-82
2021/12/25 08:48:30;;;;;;;10.80;5.20;;;;;;;-6.38;67.67;99778.86;103705;1316;24253;-81
2021/12/25 08:51:00;;;;;;;10.20;5.20;;;;;;;-6.33;67.59;99782.52;103659;1316;24212;-79
2021/12/25 08:53:28;;;;;;;9.10;5.20;;;;;;;-6.32;67.35;99781.05;103730;1310;26002;-79
2021/12/25 08:55:57;;;;;;;11.60;6.20;;;;;;;-6.40;67.17;99783.55;103782;1316;25930;-79
2021/12/25 08:58:26;;;;;;;9.20;5.50;;;;;;;-6.29;67.86;99783.77;103735;1317;24251;-78
2021/12/25 09:00:56;;;;;;;10.10;5.70;;;;;;;-6.04;68.23;99779.80;103748;1317;22636;-79
2021/12/25 09:03:25;;;;;;;8.80;5.20;;;;;;;-5.79;67.50;99785.41;103571;1316;22574;-78
2021/12/25 09:05:57;;;;;;;10.10;4.90;;;;;;;-5.71;66.69;99786.98;103583;1317;23523;-80
2021/12/25 09:08:25;;;;;;;12.40;6.40;;;;;;;-5.65;66.69;99790.48;103469;1317;23255;-79
2021/12/25 09:10:53;;;;;;;12.30;5.60;;;;;;;-5.60;65.87;99789.84;103708;1316;22669;-89
2021/12/25 09:13:20;;;;;;;12.90;5.80;;;;;;;-5.59;66.36;99792.30;103305;1317;24335;-78
2021/12/25 09:15:47;;;;;;;11.30;5.80;;;;;;;-5.57;65.65;99790.02;103682;1317;22593;-79
2021/12/25 09:18:14;;;;;;;14.50;7.00;;;;;;;-5.60;65.57;99786.80;103503;1312;22590;-78
2021/12/25 09:20:41;;;;;;;15.50;7.50;;;;;;;-5.60;65.47;99788.65;103706;1318;25258;-79
2021/12/25 09:23:08;;;;;;;12.90;7.50;;;;;;;-5.65;65.80;99786.20;103670;1318;24324;-79
2021/12/25 09:25:35;;;;;;;16.00;7.30;;;;;;;-5.44;66.42;99783.36;103624;1317;24181;-80
2021/12/25 09:28:02;;;;;;;15.50;8.30;;;;;;;-5.32;65.42;99779.79;103618;1313;22654;-79
2021/12/25 09:30:29;;;;;;;18.60;7.90;;;;;;;-5.31;65.33;99783.27;103719;1314;25372;-78
2021/12/25 09:32:56;;;;;;;14.30;6.70;;;;;;;-5.17;65.68;99786.10;103744;1313;25504;-80
2021/12/25 09:35:24;;;;;;;14.50;8.00;;;;;;;-5.04;64.90;99786.19;103728;1316;24874;-79
2021/12/25 09:37:51;;;;;;;17.80;8.90;;;;;;;-4.96;64.92;99792.55;103694;1316;22589;-80
2021/12/25 09:40:18;;;;;;;17.20;8.00;;;;;;;-4.88;64.44;99797.17;103772;1314;22516;-79
2021/12/25 09:42:45;;;;;;;17.90;8.80;;;;;;;-4.88;64.15;99796.48;103697;1315;24247;-81
2021/12/25 09:45:14;;;;;;;19.40;9.20;;;;;;;-4.79;64.44;99801.87;103704;1314;22574;-81
2021/12/25 09:47:43;;;;;;;17.20;8.70;;;;;;;-4.76;64.00;99801.48;103725;1317;25378;-77
2021/12/25 09:50:11;;;;;;;13.60;7.80;;;;;;;-4.79;63.91;99802.02;103770;1316;25569;-80
2021/12/25 09:52:39;;;;;;;15.50;9.00;;;;;;;-4.82;63.72;99800.86;103570;1313;22585;-80
2021/12/25 09:55:07;;;;;;;12.60;7.40;;;;;;;-4.73;64.36;99800.58;103655;1317;22780;-80
2021/12/25 09:57:35;;;;;;;14.70;7.50;;;;;;;-4.55;63.94;99796.66;103600;1317;23960;-81
2021/12/25 10:00:14;;;;;;;17.30;8.10;;;;;;;-4.57;63.71;99797.45;103714;1312;22776;-80
2021/12/25 10:02:45;;;;;;;13.70;7.00;;;;;;;-4.43;63.85;99794.44;103058;1323;22638;-82
2021/12/25 10:05:22;;;;;;;16.90;8.50;;;;;;;-4.23;64.21;99792.14;103047;1323;22552;-81
2021/12/25 10:08:00;;;;;;;12.80;6.80;;;;;;;-3.90;63.69;99797.05;102984;1323;23567;-81
2021/12/25 10:11:02;;;;;;;14.60;7.40;;;;;;;-3.85;63.20;99795.55;102936;1323;22592;-80
2021/12/25 10:13:36;;;;;;;15.20;8.60;;;;;;;-3.72;63.68;99788.64;103135;1324;22579;-83
2021/12/25 10:16:28;;;;;;;15.30;8.50;;;;;;;-3.36;63.80;99794.14;103876;1323;22553;-80
2021/12/25 10:19:15;;;;;;;14.40;7.60;;;;;;;-2.99;63.41;99801.01;103377;1324;24240;-81
2021/12/25 10:21:42;;;;;;;;;;;;;;;-2.74;62.66;99798.96;103417;1319;22570;-80
2021/12/25 10:24:26;;;;;;;18.40;9.30;;;;;;;-2.60;62.22;99808.38;103416;1320;22730;-82
2021/12/25 10:27:08;;;;;;;19.70;9.10;;;;;;;-2.58;61.59;99809.84;103451;1318;22596;-81
2021/12/25 10:29:35;;;;;;;13.90;7.40;;;;;;;-2.33;62.02;99811.71;103776;1312;22660;-80
2021/12/25 10:32:18;;;;;;;17.40;8.00;;;;;;;-2.16;61.45;99809.33;103651;1316;22646;-84
2021/12/25 10:34:47;;;;;;;15.90;9.20;;;;;;;-2.08;60.88;99815.31;103270;1322;23144;-80
2021/12/25 10:37:17;;;;;;;15.60;9.60;;;;;;;-2.09;60.25;99813.37;103369;1322;23956;-81
2021/12/25 10:39:45;;;;;;;15.70;9.70;;;;;;;-2.21;59.88;99811.25;103012;1320;22921;-80
2021/12/25 10:42:16;;;;;;;18.40;9.50;;;;;;;-2.15;60.50;99808.35;103097;1322;22557;-81
2021/12/25 10:44:58;;;;;;;16.70;8.70;;;;;;;-2.04;60.18;99804.58;103111;1319;24481;-80
2021/12/25 10:47:28;;;;;;;19.00;9.80;;;;;;;-2.00;59.64;99805.70;103045;1317;22906;-79
2021/12/25 10:49:57;;;;;;;19.80;10.20;;;;;;;-2.09;59.72;99814.05;103081;1320;22703;-83
2021/12/25 10:52:40;;;;;;;17.30;9.20;;;;;;;-2.00;60.07;99811.58;103056;1319;25235;-82
2021/12/25 10:55:18;;;;;;;11.00;6.10;;;;;;;-1.81;59.81;99815.11;103462;1318;23949;-82
2021/12/25 10:57:54;;;;;;;20.60;10.70;;;;;;;-1.96;58.49;99807.91;103698;1316;22593;-81
2021/12/25 11:00:21;;;;;;;;;;;;;;;-1.86;59.40;99810.48;103658;1317;22574;-80
2021/12/25 11:02:47;;;;;;;16.70;9.10;;;;;;;-2.04;58.06;99807.64;103498;1319;25246;-82
2021/12/25 11:05:15;;;;;;;18.90;8.60;;;;;;;-2.24;58.34;99815.45;103538;1319;22631;-82
2021/12/25 11:07:42;;;;;;;16.90;8.90;;;;;;;-2.44;58.85;99817.55;103826;1319;25246;-81
2021/12/25 11:10:18;;;;;;;15.90;8.80;;;;;;;-2.31;59.66;99822.98;103709;1319;22605;-80
2021/12/25 11:12:46;;;;;;;15.40;9.30;;;;;;;-2.19;59.27;99822.71;103836;1318;25572;-82
2021/12/25 11:15:24;;;;;;;19.70;9.10;;;;;;;-2.08;59.18;99821.85;103864;1317;22578;-82
2021/12/25 11:18:04;;;;;;;15.90;8.80;;;;;;;-2.06;57.94;99818.30;104152;1315;25198;-82
2021/12/25 11:20:38;;;;;;;16.50;9.00;;;;;;;-2.10;58.74;99818.33;104604;1316;22577;-82
2021/12/25 11:23:07;;;;;;;17.80;10.00;;;;;;;-2.01;58.90;99810.17;104053;1317;23924;-81
2021/12/25 11:25:37;;;;;;;9.60;5.40;;;;;;;-1.71;59.04;99812.15;104019;1316;22586;-82
2021/12/25 11:28:09;;;;;;;17.60;10.40;;;;;;;-1.52;58.06;99808.77;104825;1316;23332;-85
2021/12/25 11:30:46;;;;;;;17.10;8.90;;;;;;;-1.41;58.27;99802.00;104998;1316;22521;-82
2021/12/25 11:33:13;;;;;;;17.80;9.10;;;;;;;-0.92;58.16;99798.91;104553;1317;23322;-81
2021/12/25 11:35:40;;;;;;;15.50;8.40;;;;;;;-0.45;57.42;99808.98;103756;1313;24274;-82
2021/12/25 11:38:09;;;;;;;14.10;8.70;;;;;;;-0.42;55.97;99806.12;103629;1317;22582;-83
2021/12/25 11:40:45;;;;;;;16.00;8.90;;;;;;;-0.30;56.39;99804.19;103732;1315;22620;-83
2021/12/25 11:43:12;;;;;;;17.70;9.30;;;;;;;-0.32;55.57;99806.39;103856;1316;24786;-84
2021/12/25 11:45:41;;;;;;;16.00;8.10;;;;;;;-0.55;55.72;99803.20;103806;1316;25332;-82
2021/12/25 11:48:11;;;;;;;15.20;7.90;;;;;;;-0.81;55.17;99804.90;103858;1316;22636;-83
2021/12/25 11:50:42;;;;;;;18.20;9.00;;;;;;;-0.92;56.32;99804.44;103741;1316;25309;-82
2021/12/25 11:53:27;;;;;;;15.90;8.80;;;;;;;-0.93;56.01;99807.35;103631;1317;25284;-84
2021/12/25 11:58:49;;;;;;;15.10;8.70;;;;;;;-0.82;55.67;99802.65;103675;1315;25361;-81
2021/12/25 12:01:22;;;;;;;15.50;8.90;;;;;;;-0.98;56.23;99806.20;103925;1316;22731;-80
2021/12/25 12:03:56;;;;;;;17.60;8.50;;;;;;;-0.85;56.72;99801.00;103786;1316;22789;-80
2021/12/25 12:06:47;;;;;;;12.40;8.00;;;;;;;-0.65;56.56;99801.38;104106;1310;22518;-80
2021/12/25 12:09:28;;;;;;;15.70;8.40;;;;;;;-0.69;55.52;99798.33;104025;1316;22602;-83
2021/12/25 12:12:24;;;;;;;13.60;8.20;;;;;;;-0.79;55.85;99793.74;104060;1316;22894;-88
2021/12/25 12:15:17;;;;;;;11.50;6.40;;;;;;;-0.80;55.94;99802.87;104004;1311;24346;-82
2021/12/25 12:18:29;;;;;;;15.60;8.30;;;;;;;-1.03;55.23;99804.82;103866;1319;22594;-82
2021/12/25 12:21:17;;;;;;;19.70;9.70;;;;;;;-1.23;55.60;99804.25;103795;1316;22612;-82
2021/12/25 12:26:45;;;;;;;15.40;8.40;;;;;;;-1.77;55.66;99816.29;103727;1317;22568;-82
2021/12/25 12:29:14;;;;;;;13.20;7.90;;;;;;;-1.83;56.75;99826.27;104127;1314;22624;-86
2021/12/25 12:31:47;;;;;;;14.00;8.30;;;;;;;-1.72;56.91;99828.85;103709;1319;24304;-83
2021/12/25 12:34:30;;;;;;;15.70;8.60;;;;;;;-1.70;56.54;99829.27;103907;1319;26039;-82
2021/12/25 12:37:15;;;;;;;15.80;6.50;;;;;;;-1.69;57.03;99833.11;102965;1325;24282;-82
2021/12/25 12:40:06;;;;;;;16.10;8.40;;;;;;;-1.74;55.91;99835.18;103225;1323;24361;-81
2021/12/25 12:45:19;;;;;;;16.60;9.30;;;;;;;-1.51;56.43;99842.47;103353;1319;24209;-81
2021/12/25 12:48:19;;;;;;;18.50;9.40;;;;;;;-1.28;56.45;99840.40;104089;1322;22531;-80
2021/12/25 12:50:56;;;;;;;14.70;8.70;;;;;;;-1.01;56.21;99837.20;103742;1322;22614;-80
2021/12/25 12:53:25;;;;;;;16.20;9.10;;;;;;;-0.92;55.73;99843.01;103892;1322;24371;-82
2021/12/25 12:56:18;;;;;;;12.70;7.50;;;;;;;-1.09;55.33;99839.57;104297;1316;22645;-80
2021/12/25 12:59:12;;;;;;;16.60;8.70;;;;;;;-1.38;55.33;99845.98;104238;1316;23180;-80
2021/12/25 13:01:39;;;;;;;18.80;9.40;;;;;;;-1.57;55.88;99847.14;103534;1316;23946;-80
2021/12/25 13:04:08;;;;;;;16.30;8.90;;;;;;;-1.49;55.87;99846.01;103715;1316;25224;-80
2021/12/25 13:06:35;;;;;;;19.20;10.20;;;;;;;-1.30;55.70;99844.66;103810;1315;22604;-80
2021/12/25 13:09:08;;;;;;;17.40;8.40;;;;;;;-1.11;55.73;99843.84;103644;1316;22679;-79
2021/12/25 13:11:52;;;;;;;12.70;6.30;;;;;;;-0.88;55.24;99854.70;103734;1317;25359;-79
2021/12/25 13:14:19;;;;;;;20.40;9.50;;;;;;;-1.05;54.87;99864.04;103624;1316;23014;-78
2021/12/25 13:16:46;;;;;;;16.50;9.90;;;;;;;-1.36;55.10;99867.79;103607;1316;23933;-81
2021/12/25 13:19:13;;;;;;;15.50;8.10;;;;;;;-1.69;55.48;99871.97;103722;1316;22807;-81
2021/12/25 13:21:41;;;;;;;16.60;9.80;;;;;;;-1.91;56.04;99872.10;103097;1322;25313;-83
2021/12/25 13:24:13;;;;;;;17.50;9.80;;;;;;;-1.95;56.44;99871.99;103002;1321;26547;-81
2021/12/25 13:26:48;;;;;;;16.90;9.10;;;;;;;-2.10;56.76;99871.67;102898;1325;23570;-84
2021/12/25 13:29:20;;;;;;;16.20;9.10;;;;;;;-2.01;57.42;99875.91;103492;1325;22644;-85
2021/12/25 13:31:47;;;;;;;18.20;9.80;;;;;;;-1.91;57.36;99882.29;104018;1322;25259;-84
2021/12/25 13:34:21;;;;;;;15.50;8.40;;;;;;;-2.01;57.29;99881.98;104914;1325;25239;-85